Data for 05/18/2016

Time Sea-Level Adjusted Pressure Absolute Pressure Temperature Relative Humidity Dew Point   
(mb) (inHg) (mb) (inHg) (C) (F) (%) (C) (F)
00:05 1021 30.15 850 25.1 8.6 47.5 61 1.5 34.7
00:10 1021 30.15 850 25.1 8.5 47.2 62 1.7 35
00:15 1021 30.15 850 25.1 8.4 47.1 62 1.6 34.8
00:20 1021 30.15 850 25.1 8.4 47.1 62 1.6 34.9
00:25 1021 30.15 850 25.1 8.4 47 62 1.6 34.9
00:30 1021 30.15 850 25.1 8.3 47 62 1.6 34.8
00:35 1021 30.15 850 25.1 8.3 46.9 62 1.5 34.8
00:40 1021 30.15 850 25.1 8.2 46.8 63 1.6 34.8
00:45 1021 30.15 850 25.1 8.2 46.8 62 1.5 34.6
00:50 1021 30.15 850 25.1 8.4 47.1 61 1.4 34.6
00:55 1021 30.15 850 25.1 8.5 47.3 61 1.4 34.5
01:00 1021 30.15 850 25.1 8.5 47.4 61 1.5 34.8
01:05 1021 30.15 850 25.1 8.4 47 62 1.6 34.8
01:10 1021 30.15 850 25.1 8.2 46.8 62 1.5 34.7
01:15 1021 30.15 850 25.1 8.4 47 61 1.3 34.4
01:20 1021 30.15 850 25.1 8.5 47.2 61 1.4 34.6
01:25 1021 30.15 850 25.1 8.6 47.4 60 1.4 34.5
01:30 1021 30.15 850 25.1 8.6 47.6 60 1.4 34.6
01:35 1021 30.15 850 25.1 8.5 47.2 62 1.6 34.9
01:40 1021 30.15 850 25.1 8.1 46.6 63 1.5 34.6
01:45 1021 30.15 850 25.1 8.1 46.5 63 1.5 34.7
01:50 1021 30.15 850 25.1 7.9 46.3 64 1.5 34.7
01:55 1021 30.15 850 25.1 7.9 46.2 63 1.4 34.5
02:00 1021 30.15 850 25.1 7.9 46.2 63 1.4 34.5
02:05 1021 30.15 850 25.1 8 46.4 62 1.3 34.4
02:10 1021 30.15 850 25.1 8.3 47 61 1.4 34.5
02:15 1021 30.15 850 25.1 8.4 47.2 61 1.4 34.5
02:20 1021 30.15 850 25.1 8.3 47 62 1.6 34.8
02:25 1021 30.15 850 25.1 8.1 46.5 64 1.7 35
02:30 1021 30.15 850 25.1 8 46.4 65 1.7 35.1
02:35 1021 30.15 850 25.1 7.9 46.1 64 1.6 34.9
02:40 1021 30.15 850 25.1 7.7 45.8 64 1.4 34.6
02:45 1021 30.15 850 25.1 7.6 45.7 65 1.4 34.5
02:50 1021 30.15 850 25.1 7.7 45.9 64 1.4 34.5
02:55 1021 30.15 850 25.1 7.8 46.1 64 1.4 34.5
03:00 1021 30.15 850 25.1 7.8 46.1 64 1.4 34.6
03:05 1021 30.15 850 25.1 7.8 46 64 1.4 34.4
03:10 1021 30.15 850 25.1 7.6 45.7 65 1.5 34.6
03:15 1021 30.15 850 25.1 7.4 45.2 66 1.5 34.7
03:20 1021 30.15 850 25.1 7.3 45.2 65 1.2 34.1
03:25 1021 30.15 850 25.1 7.9 46.1 63 1.3 34.3
03:30 1021 30.15 850 25.1 7.8 46.1 64 1.4 34.6
03:35 1021 30.15 850 25.1 7.9 46.2 62 1.1 34
03:40 1021 30.15 850 25.1 8.1 46.6 63 1.4 34.5
03:45 1021 30.15 850 25.1 8 46.4 62 1.3 34.3
03:50 1021 30.15 850 25.1 8.2 46.7 62 1.3 34.3
03:55 1021 30.15 850 25.1 8.1 46.5 63 1.4 34.5
04:00 1021 30.15 850 25.1 7.8 46 67 2.1 35.8
04:05 1021 30.15 850 25.1 7.8 46 64 1.4 34.6
04:10 1021 30.15 850 25.1 7.5 45.5 65 1.4 34.5
04:15 1021 30.15 850 25.1 7.4 45.3 65 1.4 34.4
04:20 1021 30.15 850 25.1 7.5 45.4 65 1.3 34.3
04:25 1021 30.15 850 25.1 7.4 45.3 66 1.5 34.8
04:30 1021 30.15 850 25.1 6.9 44.5 67 1.2 34.1
04:35 1021 30.15 850 25.1 7.1 44.7 67 1.3 34.4
04:40 1021 30.15 850 25.1 6.7 44 68 1.3 34.3
04:45 1021 30.15 850 25.1 6.8 44.2 66 0.9 33.6
04:50 1021 30.15 850 25.1 7 44.7 67 1.3 34.3
04:55 1021 30.15 850 25.1 6.6 43.9 69 1.3 34.4
05:00 1021 30.15 850 25.1 6.8 44.2 67 1.1 34
05:05 1021 30.15 850 25.1 7.2 45 65 1.2 34.1
05:10 1021 30.15 850 25.1 7.4 45.4 66 1.5 34.8
05:15 1021 30.15 850 25.1 6.4 43.5 70 1.3 34.3
05:20 1021 30.15 850 25.1 6.5 43.7 69 1.2 34.1
05:25 1021 30.15 850 25.1 6.9 44.4 66 1 33.7
05:30 1021 30.15 850 25.1 7.5 45.5 65 1.3 34.4
05:35 1021 30.15 850 25.1 7.6 45.6 65 1.4 34.5
05:40 1021 30.15 850 25.1 7.6 45.6 65 1.5 34.6
05:45 1021 30.15 850 25.1 7.5 45.5 66 1.5 34.7
05:50 1021 30.15 850 25.1 7.4 45.3 66 1.5 34.7
05:55 1021 30.15 850 25.1 7.4 45.3 66 1.4 34.6
06:00 1021 30.15 850 25.1 7.6 45.7 65 1.5 34.6
06:05 1021 30.15 850 25.1 7.9 46.1 64 1.6 34.9
06:10 1021 30.15 850 25.1 8.1 46.5 63 1.6 34.8
06:15 1021 30.15 850 25.1 8.4 47.2 62 1.7 35
06:20 1021 30.15 850 25.1 8.7 47.6 62 1.9 35.4
06:25 1021 30.15 850 25.1 8.8 47.8 62 2 35.6
06:30 1021 30.15 850 25.1 9 48.2 61 2 35.6
06:35 1021 30.15 850 25.1 9.4 48.8 60 2.1 35.8
06:40 1021 30.15 850 25.1 9.8 49.6 60 2.4 36.3
06:45 1021 30.15 850 25.1 10.2 50.3 58 2.3 36.1
06:50 1021 30.15 850 25.1 10.6 51.1 55 2.1 35.8
06:55 1021 30.15 850 25.1 11.1 52 53 1.9 35.4
07:00 1021 30.15 850 25.1 11.6 52.9 53 2.3 36.2
07:05 1021 30.15 850 25.1 12.6 54.6 50 2.4 36.2
07:10 1021 30.15 850 25.1 13.2 55.8 49 2.8 37
07:15 1021 30.15 850 25.1 13.3 56 48 2.6 36.6
07:20 1021 30.15 850 25.1 13.7 56.6 45 2.1 35.8
07:25 1021 30.15 850 25.1 14 57.2 44 2.2 35.9
07:30 1021 30.15 850 25.1 14.4 57.8 44 2.2 36
07:35 1021 30.15 850 25.1 14.5 58.1 44 2.5 36.5
07:40 1021 30.15 850 25.1 14.3 57.8 43 2.1 35.7
07:45 1021 30.15 850 25.1 14.9 58.7 42 2.2 35.9
07:50 1021 30.15 850 25.1 15.2 59.4 42 2.4 36.3
07:55 1021 30.15 850 25.1 15.3 59.5 41 2.1 35.8
08:00 1021 30.15 850 25.1 15.5 60 41 2.4 36.3
08:05 1021 30.15 850 25.1 15.7 60.2 40 2.2 35.9
08:10 1021 30.15 850 25.1 15.7 60.3 41 2.5 36.5
08:15 1021 30.15 850 25.1 15.7 60.3 40 2.1 35.8
08:20 1021 30.15 850 25.1 16.5 61.6 38 2.3 36.2
08:25 1021 30.15 850 25.1 16.9 62.4 37 2.4 36.3
08:30 1021 30.15 850 25.1 16.7 62 38 2.4 36.3
08:35 1021 30.15 850 25.1 17.2 62.9 36 2.2 35.9
08:40 1021 30.15 850 25.1 17.3 63.1 37 2.8 37
08:45 1021 30.15 850 25.1 17.3 63.1 37 2.7 36.9
08:50 1020 30.12 850 25.1 17.1 62.7 38 2.8 37
08:55 1020 30.12 850 25.1 16.6 61.9 39 2.5 36.5
09:00 1020 30.12 850 25.1 17.1 62.8 37 2.6 36.7
09:05 1020 30.12 850 25.1 16.9 62.4 36 2 35.6
09:10 1020 30.12 850 25.1 17.4 63.3 36 2.4 36.2
09:15 1020 30.12 850 25.1 17.5 63.5 36 2.5 36.5
09:20 1020 30.12 850 25.1 17.9 64.1 36 2.7 36.8
09:25 1020 30.12 849 25.07 17.1 62.9 38 2.8 37.1
09:30 1020 30.12 849 25.07 17.3 63.2 36 2.1 35.7
09:35 1020 30.12 849 25.07 17.9 64.2 36 2.6 36.6
09:40 1020 30.12 849 25.07 18.6 65.5 35 3 37.3
09:45 1020 30.12 849 25.07 18.3 65 36 3 37.4
09:50 1020 30.12 849 25.07 17.5 63.5 37 2.8 37.1
09:55 1020 30.12 849 25.07 17.5 63.4 37 2.7 36.8
10:00 1020 30.12 849 25.07 18 64.4 35 2.5 36.4
10:05 1020 30.12 849 25.07 18 64.4 35 2.4 36.2
10:10 1020 30.12 849 25.07 17.7 63.8 33 1.5 34.7
10:15 1020 30.12 849 25.07 18.8 65.9 31 1.7 35
10:20 1020 30.12 849 25.07 18.9 66 31 1.6 34.9
10:25 1020 30.12 849 25.07 19.1 66.4 30 1.2 34.2
10:30 1020 30.12 849 25.07 19.5 67.1 31 1.9 35.4
10:35 1020 30.12 849 25.07 19.1 66.4 31 1.8 35.3
10:40 1020 30.12 849 25.07 18.8 65.8 31 1.7 35
10:45 1020 30.12 849 25.07 19 66.3 32 2.1 35.8
10:50 1020 30.12 849 25.07 19.3 66.8 31 1.9 35.5
10:55 1019 30.09 849 25.07 19.4 66.9 31 2 35.7
11:00 1019 30.09 849 25.07 19.7 67.5 30 1.8 35.2
11:05 1019 30.09 849 25.07 20.2 68.4 29 1.7 35.1
11:10 1019 30.09 849 25.07 20.3 68.5 29 1.8 35.3
11:15 1019 30.09 849 25.07 20.3 68.5 29 1.7 35.1
11:20 1019 30.09 848 25.04 20.4 68.8 29 1.8 35.2
11:25 1019 30.09 848 25.04 19.9 67.8 30 2.1 35.8
11:30 1019 30.09 848 25.04 19.9 67.8 29 1.7 35.1
11:35 1019 30.09 848 25.04 20.1 68.2 28 1.1 33.9
11:40 1019 30.09 848 25.04 20.7 69.2 27 1.3 34.3
11:45 1019 30.09 848 25.04 20.6 69.1 28 1.8 35.2
11:50 1019 30.09 848 25.04 20.8 69.4 29 2.3 36.1
11:55 1019 30.09 848 25.04 20.7 69.2 26 0.9 33.7
12:00 1019 30.09 848 25.04 20.8 69.4 27 1.4 34.5
12:05 1019 30.09 848 25.04 20.7 69.2 28 1.6 34.9
12:10 1019 30.09 848 25.04 19.3 66.7 30 1.4 34.5
12:15 1019 30.09 848 25.04 19.6 67.2 27 0.4 32.7
12:20 1019 30.09 848 25.04 20.1 68.2 28 1.2 34.1
12:25 1018 30.06 848 25.04 20.3 68.6 27 1 33.7
12:30 1018 30.06 848 25.04 20.8 69.5 27 1.1 33.9
12:35 1018 30.06 848 25.04 20.9 69.7 27 1.3 34.4
12:40 1018 30.06 847 25.01 21.1 70 27 1.3 34.4
12:45 1018 30.06 847 25.01 20.6 69 29 2 35.7
12:50 1018 30.06 847 25.01 20.3 68.5 27 0.8 33.4
12:55 1018 30.06 847 25.01 20.7 69.2 27 1.1 34
13:00 1018 30.06 847 25.01 21.3 70.3 27 1.8 35.2
13:05 1018 30.06 847 25.01 21 69.9 27 1.5 34.7
13:10 1018 30.06 847 25.01 21.3 70.3 26 1.3 34.3
13:15 1018 30.06 847 25.01 21.5 70.8 26 1.5 34.8
13:20 1018 30.06 847 25.01 21.7 71.1 27 2.1 35.8
13:25 1018 30.06 847 25.01 21.3 70.4 27 1.8 35.2
13:30 1018 30.06 847 25.01 21.1 70 28 2.1 35.7
13:35 1018 30.06 847 25.01 20.7 69.2 28 1.7 35.1
13:40 1018 30.06 847 25.01 21.3 70.4 26 1.1 34
13:45 1018 30.06 847 25.01 22.1 71.8 25 1.5 34.7
13:50 1017 30.03 847 25.01 22.3 72.1 27 2.6 36.7
13:55 1017 30.03 847 25.01 21.9 71.5 26 2 35.5
14:00 1017 30.03 847 25.01 21.5 70.7 27 1.9 35.4
14:05 1017 30.03 846 24.98 21 69.9 28 2.1 35.8
14:10 1017 30.03 846 24.98 21.3 70.3 27 1.6 34.9
14:15 1017 30.03 846 24.98 22.3 72.1 26 2.1 35.8
14:20 1017 30.03 846 24.98 22.5 72.6 25 2 35.5
14:25 1017 30.03 846 24.98 22.1 71.7 25 1.5 34.8
14:30 1017 30.03 846 24.98 22.2 71.9 25 1.7 35
14:35 1017 30.03 846 24.98 21.7 71 26 1.3 34.3
14:40 1017 30.03 846 24.98 21.9 71.4 26 1.9 35.3
14:45 1017 30.03 846 24.98 21.5 70.6 27 1.9 35.3
14:50 1017 30.03 846 24.98 21.7 71 27 2.3 36.1
14:55 1017 30.03 846 24.98 21.8 71.3 27 2.1 35.8
15:00 1016 30 846 24.98 21.6 70.9 26 1.4 34.5
15:05 1016 30 846 24.98 20.8 69.4 27 1.5 34.7
15:10 1016 30 845 24.95 21.3 70.3 27 1.6 34.9
15:15 1016 30 845 24.95 21.7 71.1 27 1.9 35.3
15:20 1016 30 845 24.95 21.9 71.4 26 1.8 35.3
15:25 1016 30 845 24.95 21.9 71.5 26 1.6 34.8
15:30 1016 30 845 24.95 22.1 71.8 26 2.1 35.7
15:35 1016 30 845 24.95 21.5 70.6 26 1.4 34.5
15:40 1016 30 845 24.95 21.7 71.1 26 1.3 34.4
15:45 1016 30 845 24.95 22.1 71.8 26 2 35.5
15:50 1016 30 845 24.95 21.3 70.3 27 1.8 35.2
15:55 1016 30 845 24.95 20.9 69.7 27 1.5 34.7
16:00 1016 30 845 24.95 20.8 69.5 27 1.1 34
16:05 1016 30 845 24.95 21.7 71 27 1.9 35.5
16:10 1016 30 845 24.95 21.5 70.7 27 1.7 35.1
16:15 1016 30 845 24.95 20.9 69.7 26 0.9 33.6
16:20 1016 30 845 24.95 21.5 70.7 27 1.8 35.3
16:25 1016 30 845 24.95 21.4 70.6 26 1.5 34.7
16:30 1015 29.97 845 24.95 21.4 70.6 26 1.2 34.2
16:35 1015 29.97 845 24.95 21.1 70 27 1.5 34.6
16:40 1015 29.97 844 24.92 21 69.7 27 1.6 34.8
16:45 1015 29.97 844 24.92 20.8 69.4 28 1.6 34.8
16:50 1015 29.97 844 24.92 21 69.8 27 1.6 34.9
16:55 1015 29.97 844 24.92 21.5 70.6 27 1.9 35.5
17:00 1015 29.97 844 24.92 21.3 70.4 27 1.7 35
17:05 1015 29.97 844 24.92 21.3 70.3 26 1.4 34.6
17:10 1015 29.97 844 24.92 20.7 69.2 28 1.7 35.1
17:15 1015 29.97 844 24.92 20.4 68.6 29 1.7 35
17:20 1015 29.97 844 24.92 20.5 68.9 28 1.6 34.8
17:25 1015 29.97 844 24.92 20.6 69.1 28 1.5 34.6
17:30 1015 29.97 844 24.92 20.8 69.4 27 1.4 34.5
17:35 1014 29.94 844 24.92 21 69.9 27 1.3 34.4
17:40 1014 29.94 844 24.92 21.1 70 27 1.7 35
17:45 1014 29.94 844 24.92 21.4 70.5 27 1.9 35.4
17:50 1014 29.94 844 24.92 21 69.8 28 2 35.6
17:55 1014 29.94 843 24.89 20.8 69.5 27 1.5 34.8
18:00 1014 29.94 843 24.89 20.9 69.6 27 1.5 34.7
18:05 1014 29.94 843 24.89 21 69.9 27 1.8 35.2
18:10 1014 29.94 843 24.89 20.7 69.2 29 2 35.5
18:15 1014 29.94 843 24.89 20.6 69 28 1.7 35.1
18:20 1014 29.94 843 24.89 20.6 69.1 28 1.7 35
18:25 1014 29.94 843 24.89 20.4 68.7 30 2.3 36.1
18:30 1014 29.94 843 24.89 20.1 68.1 30 2 35.7
18:35 1014 29.94 843 24.89 20 68 30 1.9 35.5
18:40 1014 29.94 843 24.89 19.9 67.8 30 2.1 35.8
18:45 1014 29.94 843 24.89 19.8 67.6 31 2.4 36.4
18:50 1014 29.94 843 24.89 19.8 67.6 31 2.5 36.4
18:55 1014 29.94 843 24.89 19.7 67.5 32 2.6 36.6
19:00 1014 29.94 843 24.89 19.5 67.1 33 2.9 37.3
19:05 1014 29.94 843 24.89 19.4 66.9 33 3 37.4
19:10 1014 29.94 843 24.89 19.2 66.6 34 3 37.4
19:15 1014 29.94 843 24.89 19.2 66.6 33 2.8 37.1
19:20 1014 29.94 843 24.89 19.1 66.4 33 2.8 37
19:25 1014 29.94 843 24.89 19 66.2 36 3.6 38.5
19:30 1014 29.94 843 24.89 18.7 65.7 37 4 39.2
19:35 1014 29.94 843 24.89 17.9 64.1 39 3.9 39
19:40 1014 29.94 843 24.89 17.6 63.6 40 3.9 39
19:45 1014 29.94 843 24.89 17.5 63.5 39 3.7 38.6
19:50 1014 29.94 843 24.89 17.4 63.3 40 3.6 38.5
19:55 1014 29.94 843 24.89 17.3 63.1 39 3.2 37.7
20:00 1014 29.94 843 24.89 17.4 63.3 38 3.1 37.6
20:05 1014 29.94 843 24.89 17.5 63.5 38 3.2 37.7
20:10 1014 29.94 843 24.89 17.5 63.4 40 4 39.2
20:15 1014 29.94 843 24.89 17.1 62.8 43 4.6 40.2
20:20 1014 29.94 843 24.89 16.8 62.2 48 5.7 42.2
20:25 1014 29.94 843 24.89 16 60.8 51 6 42.8
20:30 1014 29.94 843 24.89 15.5 59.9 52 5.7 42.2
20:35 1014 29.94 843 24.89 15.4 59.7 51 5.4 41.6
20:40 1014 29.94 843 24.89 15.4 59.7 51 5.4 41.7
20:45 1014 29.94 843 24.89 15.3 59.6 52 5.6 42.1
20:50 1014 29.94 843 24.89 15.2 59.3 53 5.7 42.2
20:55 1014 29.94 843 24.89 15.1 59.1 53 5.8 42.4
21:00 1014 29.94 844 24.92 14.7 58.5 54 5.7 42.2
21:05 1014 29.94 844 24.92 14.7 58.5 53 5.2 41.4
21:10 1014 29.94 843 24.89 15.1 59.1 54 5.9 42.5
21:15 1014 29.94 844 24.92 14.9 58.8 55 6 42.8
21:20 1014 29.94 844 24.92 14.5 58 55 5.5 41.9
21:25 1014 29.94 843 24.89 14.5 58 53 5 40.9
21:30 1014 29.94 843 24.89 14.6 58.3 53 5.2 41.4
21:35 1014 29.94 843 24.89 14.6 58.4 54 5.5 41.9
21:40 1014 29.94 843 24.89 14.5 58.2 54 5.4 41.7
21:45 1014 29.94 844 24.92 14.4 57.9 53 5 41.1
21:50 1014 29.94 844 24.92 14.5 58.2 53 5.2 41.3
21:55 1014 29.94 844 24.92 14.6 58.3 53 5.3 41.6
22:00 1014 29.94 844 24.92 14.5 58.2 56 5.8 42.5
22:05 1014 29.94 844 24.92 14.4 58 56 5.9 42.6
22:10 1014 29.94 844 24.92 14.2 57.5 58 6.1 43
22:15 1014 29.94 844 24.92 14 57.1 56 5.5 41.8
22:20 1014 29.94 844 24.92 14 57.1 55 5.1 41.2
22:25 1014 29.94 844 24.92 14.2 57.5 53 4.9 40.8
22:30 1014 29.94 844 24.92 14.3 57.7 56 5.8 42.5
22:35 1015 29.97 844 24.92 14 57.2 60 6.3 43.4
22:40 1014 29.94 844 24.92 13.8 56.8 61 6.5 43.6
22:45 1014 29.94 843 24.89 13.6 56.5 61 6.3 43.4
22:50 1014 29.94 843 24.89 13.4 56.2 59 5.8 42.4
22:55 1014 29.94 843 24.89 13.4 56.1 62 6.3 43.3
23:00 1014 29.94 843 24.89 13.3 55.9 61 6 42.7
23:05 1014 29.94 843 24.89 13.1 55.5 62 6.1 43
23:10 1014 29.94 843 24.89 12.9 55.1 63 6.1 43
23:15 1014 29.94 843 24.89 12.7 54.9 63 5.8 42.5
23:20 1014 29.94 843 24.89 12.7 54.9 62 5.6 42.1
23:25 1014 29.94 843 24.89 12.8 55.1 61 5.6 42.2
23:30 1014 29.94 843 24.89 12.7 54.8 63 5.8 42.5
23:35 1014 29.94 843 24.89 12.3 54.1 66 6.2 43.1
23:40 1014 29.94 843 24.89 12 53.6 67 6.1 43
23:45 1013 29.91 843 24.89 12 53.7 66 6 42.7
23:50 1013 29.91 843 24.89 12.1 53.7 66 6 42.7
23:55 1013 29.91 843 24.89 12.2 54 64 5.8 42.4
24:00 1013 29.91 843 24.89 12.4 54.2 64 5.8 42.4